createdAt,value
2018-10-02T00:01:19.537Z,98968.81
2018-10-02T00:03:47.887Z,98969.68
2018-10-02T00:06:16.108Z,98963.07
2018-10-02T00:08:44.350Z,98965.67
2018-10-02T00:11:18.173Z,98962.17
2018-10-02T00:13:51.693Z,98963.46
2018-10-02T00:16:19.900Z,98967.83
2018-10-02T00:18:48.165Z,98971.30
2018-10-02T00:21:16.498Z,98974.34
2018-10-02T00:23:44.883Z,98977.03
2018-10-02T00:26:13.116Z,98973.05
2018-10-02T00:28:42.097Z,98978.86
2018-10-02T00:31:10.956Z,98970.91
2018-10-02T00:33:39.259Z,98963.46
2018-10-02T00:36:07.711Z,98965.22
2018-10-02T00:38:35.963Z,98962.14
2018-10-02T00:41:04.248Z,98971.44
2018-10-02T00:43:32.487Z,98971.05
2018-10-02T00:46:00.763Z,98975.44
2018-10-02T00:48:29.097Z,98970.66
2018-10-02T00:50:57.306Z,98972.37
2018-10-02T00:53:25.591Z,98974.55
2018-10-02T00:55:53.966Z,98982.46
2018-10-02T00:58:22.190Z,98981.15
2018-10-02T01:00:50.551Z,98978.52
2018-10-02T01:03:18.906Z,98986.41
2018-10-02T01:05:47.873Z,98982.48
2018-10-02T01:08:16.248Z,98981.59
2018-10-02T01:10:45.602Z,98979.86
2018-10-02T01:13:13.843Z,98982.93
2018-10-02T01:15:42.783Z,98980.36
2018-10-02T01:18:11.144Z,98983.05
2018-10-02T01:20:39.334Z,98989.23
2018-10-02T01:23:07.615Z,98977.39
2018-10-02T01:25:35.904Z,98983.98
2018-10-02T01:28:04.152Z,98982.23
2018-10-02T01:30:32.424Z,98986.23
2018-10-02T01:33:00.810Z,98984.89
2018-10-02T01:35:29.097Z,98982.69
2018-10-02T01:37:57.470Z,98983.98
2018-10-02T01:40:25.756Z,98980.94
2018-10-02T01:42:53.995Z,98983.55
2018-10-02T01:45:22.278Z,98976.08
2018-10-02T01:47:50.484Z,98974.74
2018-10-02T01:50:18.798Z,98987.04
2018-10-02T01:52:47.281Z,98987.48
2018-10-02T01:55:15.714Z,98990.13
2018-10-02T01:57:44.225Z,98986.69
2018-10-02T02:00:12.536Z,98991.50
2018-10-02T02:02:40.813Z,98994.59
2018-10-02T02:05:09.253Z,99006.46
2018-10-02T02:07:37.730Z,99005.60
2018-10-02T02:10:06.544Z,99007.38
2018-10-02T02:12:35.183Z,99009.13
2018-10-02T02:15:04.020Z,99014.84
2018-10-02T02:17:32.366Z,99013.55
2018-10-02T02:20:00.709Z,99012.66
2018-10-02T02:22:29.104Z,99013.54
2018-10-02T02:24:57.384Z,99011.82
2018-10-02T02:27:25.675Z,99020.56
2018-10-02T02:29:53.986Z,99018.81
2018-10-02T02:32:22.310Z,99017.94
2018-10-02T02:34:50.602Z,99014.88
2018-10-02T02:37:18.868Z,99010.97
2018-10-02T02:39:47.217Z,99014.92
2018-10-02T02:42:15.511Z,99012.73
2018-10-02T02:44:43.807Z,99021.50
2018-10-02T02:47:17.522Z,99022.81
2018-10-02T02:49:51.249Z,99021.52
2018-10-02T02:52:21.648Z,99023.24
2018-10-02T02:54:49.895Z,99027.19
2018-10-02T02:57:18.159Z,99025.86
2018-10-02T02:59:46.466Z,99027.19
2018-10-02T03:02:14.799Z,99033.32
2018-10-02T03:04:43.107Z,99033.73
2018-10-02T03:07:11.733Z,99033.73
2018-10-02T03:09:40.091Z,99032.00
2018-10-02T03:12:08.633Z,99033.75
2018-10-02T03:14:36.933Z,99032.42
2018-10-02T03:17:05.438Z,99033.30
2018-10-02T03:19:33.733Z,99044.23
2018-10-02T03:22:01.991Z,99041.60
2018-10-02T03:24:30.242Z,99045.96
2018-10-02T03:26:58.543Z,99046.81
2018-10-02T03:29:26.826Z,99050.33
2018-10-02T03:31:55.262Z,99052.91
2018-10-02T03:34:23.664Z,99048.09
2018-10-02T03:36:51.978Z,99043.30
2018-10-02T03:39:20.541Z,99046.78
2018-10-02T03:41:48.838Z,99048.07
2018-10-02T03:44:17.509Z,99044.58
2018-10-02T03:46:45.765Z,99051.56
2018-10-02T03:49:14.965Z,99048.94
2018-10-02T03:51:43.215Z,99051.53
2018-10-02T03:54:11.538Z,99051.95
2018-10-02T03:56:40.009Z,99049.30
2018-10-02T03:59:08.605Z,99050.62
2018-10-02T04:01:36.949Z,99051.52
2018-10-02T04:04:05.451Z,99054.53
2018-10-02T04:06:33.873Z,99058.90
2018-10-02T04:09:02.161Z,99056.69
2018-10-02T04:11:31.165Z,99063.19
2018-10-02T04:13:59.502Z,99065.76
2018-10-02T04:16:27.887Z,99057.42
2018-10-02T04:18:56.381Z,99065.28
2018-10-02T04:21:29.277Z,99060.48
2018-10-02T04:23:57.751Z,99062.17
2018-10-02T04:26:26.267Z,99064.34
2018-10-02T04:28:56.081Z,99065.64
2018-10-02T04:31:24.393Z,99066.54
2018-10-02T04:33:52.924Z,99068.33
2018-10-02T04:36:21.161Z,99066.16
2018-10-02T04:38:49.391Z,99067.51
2018-10-02T04:41:17.818Z,99063.17
2018-10-02T04:43:46.264Z,99066.72
2018-10-02T04:46:14.570Z,99052.77
2018-10-02T04:48:42.889Z,99052.80
2018-10-02T04:51:13.203Z,99055.40
2018-10-02T04:53:41.551Z,99055.93
2018-10-02T04:56:11.749Z,99058.11
2018-10-02T04:58:40.035Z,99058.55
2018-10-02T05:01:08.287Z,99056.39
2018-10-02T05:03:36.538Z,99059.86
2018-10-02T05:06:04.970Z,99065.08
2018-10-02T05:08:33.494Z,99062.44
2018-10-02T05:11:01.780Z,99064.14
2018-10-02T05:13:30.267Z,99064.80
2018-10-02T05:15:58.880Z,99063.39
2018-10-02T05:18:27.162Z,99060.27
2018-10-02T05:20:55.551Z,99058.88
2018-10-02T05:23:23.918Z,99060.12
2018-10-02T05:25:52.218Z,99057.92
2018-10-02T05:28:20.503Z,99066.11
2018-10-02T05:30:48.924Z,99062.60
2018-10-02T05:33:17.200Z,99067.47
2018-10-02T05:35:45.511Z,99063.89
2018-10-02T05:38:13.860Z,99070.87
2018-10-02T05:40:42.187Z,99058.66
2018-10-02T05:43:10.705Z,99041.44
2018-10-02T05:45:39.031Z,99043.06
2018-10-02T05:48:07.402Z,99034.51
2018-10-02T05:50:35.800Z,99046.86
2018-10-02T05:53:04.011Z,99040.02
2018-10-02T05:55:32.498Z,99038.41
2018-10-02T05:58:00.822Z,99028.41
2018-10-02T06:00:29.378Z,99034.94
2018-10-02T06:02:57.977Z,99049.53
2018-10-02T06:05:26.259Z,99061.61
2018-10-02T06:07:54.833Z,99066.31
2018-10-02T06:10:23.149Z,99062.27
2018-10-02T06:12:51.472Z,99064.63
2018-10-02T06:15:19.942Z,99076.53
2018-10-02T06:17:48.226Z,99079.31
2018-10-02T06:20:17.047Z,99083.83
2018-10-02T06:22:45.468Z,99081.23
2018-10-02T06:25:13.766Z,99091.91
2018-10-02T06:27:42.254Z,99102.90
2018-10-02T06:30:10.694Z,99099.86
2018-10-02T06:32:39.213Z,99098.60
2018-10-02T06:35:07.660Z,99109.58
2018-10-02T06:37:36.242Z,99100.85
2018-10-02T06:40:04.803Z,99095.16
2018-10-02T06:42:33.271Z,99094.36
2018-10-02T06:45:01.677Z,99100.53
2018-10-02T06:47:30.639Z,99099.67
2018-10-02T06:49:58.907Z,99099.28
2018-10-02T06:52:27.571Z,99103.61
2018-10-02T06:54:55.749Z,99108.42
2018-10-02T06:57:24.141Z,99111.40
2018-10-02T06:59:52.411Z,99094.13
2018-10-02T07:02:20.640Z,99088.56
2018-10-02T07:04:49.297Z,99082.53
2018-10-02T07:07:18.813Z,99083.80
2018-10-02T07:09:47.159Z,99079.53
2018-10-02T07:12:15.480Z,99070.95
2018-10-02T07:14:44.068Z,99075.77
2018-10-02T07:17:12.583Z,99073.00
2018-10-02T07:19:40.958Z,99079.41
2018-10-02T07:22:09.404Z,99086.81
2018-10-02T07:24:37.689Z,99095.92
2018-10-02T07:27:06.519Z,99105.36
2018-10-02T07:29:34.684Z,99112.46
2018-10-02T07:32:02.979Z,99107.06
2018-10-02T07:34:31.344Z,99115.75
2018-10-02T07:36:59.815Z,99106.50
2018-10-02T07:39:28.117Z,99100.28
2018-10-02T07:41:56.516Z,99105.27
2018-10-02T07:44:24.837Z,99112.56
2018-10-02T07:46:53.420Z,99118.23
2018-10-02T07:49:21.755Z,99107.78
2018-10-02T07:51:50.152Z,99103.55
2018-10-02T07:54:18.605Z,99093.05
2018-10-02T07:56:47.728Z,99092.03
2018-10-02T07:59:16.244Z,99101.59
2018-10-02T08:01:44.528Z,99104.41
2018-10-02T08:04:12.857Z,99110.65
2018-10-02T08:06:41.204Z,99101.27
2018-10-02T08:09:11.670Z,99102.58
2018-10-02T08:11:40.074Z,99099.63
2018-10-02T08:14:09.083Z,99099.28
2018-10-02T08:16:37.827Z,99097.71
2018-10-02T08:19:06.124Z,99104.84
2018-10-02T08:21:34.422Z,99100.13
2018-10-02T08:24:02.838Z,99097.70
2018-10-02T08:26:31.154Z,99096.03
2018-10-02T08:28:59.499Z,99091.23
2018-10-02T08:31:28.402Z,99093.59
2018-10-02T08:33:56.689Z,99095.31
2018-10-02T08:36:25.047Z,99095.46
2018-10-02T08:38:53.300Z,99095.64
2018-10-02T08:41:21.766Z,99096.02
2018-10-02T08:43:52.123Z,99091.70
2018-10-02T08:46:20.358Z,99084.03
2018-10-02T08:48:49.700Z,99076.28
2018-10-02T08:51:18.203Z,99076.18
2018-10-02T08:53:46.569Z,99075.69
2018-10-02T08:56:14.847Z,99075.39
2018-10-02T08:58:43.188Z,99076.34
2018-10-02T09:01:11.564Z,99072.94
2018-10-02T09:03:39.833Z,99087.88
2018-10-02T09:06:08.170Z,99096.30
2018-10-02T09:08:36.843Z,99087.81
2018-10-02T09:11:05.446Z,99084.02
2018-10-02T09:13:33.807Z,99078.14
2018-10-02T09:16:02.365Z,99087.98
2018-10-02T09:18:30.748Z,99086.18
2018-10-02T09:20:59.092Z,99079.80
2018-10-02T09:23:27.404Z,99087.25
2018-10-02T09:25:55.788Z,99088.75
2018-10-02T09:28:24.090Z,99091.23
2018-10-02T09:30:57.790Z,99083.56
2018-10-02T09:33:31.209Z,99084.16
2018-10-02T09:36:04.909Z,99075.33
2018-10-02T09:38:38.499Z,99078.20
2018-10-02T09:41:12.252Z,99075.85
2018-10-02T09:43:44.635Z,99080.70
2018-10-02T09:46:12.887Z,99077.47
2018-10-02T09:48:41.293Z,99075.00
2018-10-02T09:51:09.590Z,99076.35
2018-10-02T09:53:37.881Z,99078.48
2018-10-02T09:56:06.548Z,99085.28
2018-10-02T09:58:35.007Z,99079.34
2018-10-02T10:01:05.669Z,99078.48
2018-10-02T10:03:34.264Z,99067.25
2018-10-02T10:06:02.662Z,99070.16
2018-10-02T10:08:31.144Z,99067.33
2018-10-02T10:10:59.594Z,99068.41
2018-10-02T10:13:28.031Z,99070.84
2018-10-02T10:16:00.372Z,99062.92
2018-10-02T10:18:28.856Z,99058.77
2018-10-02T10:20:57.092Z,99059.35
2018-10-02T10:23:26.124Z,99054.16
2018-10-02T10:25:54.377Z,99053.47
2018-10-02T10:28:22.839Z,99063.95
2018-10-02T10:30:51.103Z,99056.52
2018-10-02T10:33:20.151Z,99057.55
2018-10-02T10:35:48.578Z,99057.73
2018-10-02T10:38:17.014Z,99051.41
2018-10-02T10:40:45.390Z,99046.59
2018-10-02T10:43:14.154Z,99054.32
2018-10-02T10:45:42.840Z,99052.17
2018-10-02T10:48:11.820Z,99051.03
2018-10-02T10:50:40.136Z,99046.27
2018-10-02T10:53:08.607Z,99049.28
2018-10-02T10:55:38.292Z,99050.92
2018-10-02T10:58:06.582Z,99061.16
2018-10-02T11:00:37.447Z,99054.27
2018-10-02T11:03:06.945Z,99050.41
2018-10-02T11:05:35.527Z,99050.63
2018-10-02T11:08:04.141Z,99047.48
2018-10-02T11:10:32.679Z,99050.67
2018-10-02T11:13:02.683Z,99049.20
2018-10-02T11:15:32.453Z,99059.70
2018-10-02T11:18:01.530Z,99057.19
2018-10-02T11:20:32.166Z,99054.94
2018-10-02T11:23:03.351Z,99047.91
2018-10-02T11:25:31.893Z,99040.14
2018-10-02T11:28:00.272Z,99028.56
2018-10-02T11:30:28.671Z,99033.61
2018-10-02T11:32:57.093Z,99022.74
2018-10-02T11:35:25.516Z,99017.48
2018-10-02T11:37:53.976Z,99004.93
2018-10-02T11:40:22.411Z,99003.02
2018-10-02T11:42:50.743Z,99000.10
2018-10-02T11:45:19.048Z,99006.92
2018-10-02T11:47:47.457Z,98998.89
2018-10-02T11:50:15.791Z,99008.59
2018-10-02T11:52:44.041Z,99009.16
2018-10-02T11:55:12.703Z,98995.95
2018-10-02T11:57:41.008Z,98994.80
2018-10-02T12:00:10.356Z,98993.45
2018-10-02T12:02:38.802Z,98986.58
2018-10-02T12:05:07.265Z,98982.55
2018-10-02T12:07:35.974Z,98979.50
2018-10-02T12:10:04.633Z,98982.26
2018-10-02T12:12:33.032Z,98977.69
2018-10-02T12:15:01.576Z,98981.26
2018-10-02T12:17:29.935Z,98975.67
2018-10-02T12:19:58.494Z,98966.71
2018-10-02T12:22:26.744Z,98967.38
2018-10-02T12:24:55.016Z,98971.34
2018-10-02T12:27:23.544Z,98973.97
2018-10-02T12:29:51.840Z,98982.78
2018-10-02T12:32:20.139Z,98978.58
2018-10-02T12:34:48.502Z,98979.44
2018-10-02T12:37:16.796Z,98978.56
2018-10-02T12:39:45.132Z,98986.33
2018-10-02T12:42:13.491Z,98983.33
2018-10-02T12:44:41.953Z,98974.45
2018-10-02T12:47:10.232Z,98968.95
2018-10-02T12:49:38.566Z,98966.84
2018-10-02T12:52:06.991Z,98975.47
2018-10-02T12:54:35.316Z,98970.55
2018-10-02T12:58:32.915Z,98963.47
2018-10-02T13:01:01.295Z,98958.23
2018-10-02T13:03:29.912Z,98939.06
2018-10-02T13:05:58.225Z,98937.37
2018-10-02T13:08:27.092Z,98945.69
2018-10-02T13:10:55.375Z,98941.52
2018-10-02T13:13:23.809Z,98944.25
2018-10-02T13:15:52.115Z,98941.55
2018-10-02T13:18:20.407Z,98944.19
2018-10-02T13:20:48.722Z,98936.13
2018-10-02T13:23:17.899Z,98933.27
2018-10-02T13:25:46.286Z,98933.66
2018-10-02T13:28:14.613Z,98917.67
2018-10-02T13:30:43.100Z,98915.67
2018-10-02T13:33:11.492Z,98915.88
2018-10-02T13:35:39.798Z,98916.66
2018-10-02T13:38:08.221Z,98909.74
2018-10-02T13:40:36.533Z,98908.23
2018-10-02T13:43:04.996Z,98915.89
2018-10-02T13:45:33.381Z,98921.21
2018-10-02T13:48:01.855Z,98912.25
2018-10-02T13:50:30.322Z,98917.17
2018-10-02T13:52:58.670Z,98916.33
2018-10-02T13:55:27.226Z,98923.86
2018-10-02T13:57:55.630Z,98926.73
2018-10-02T14:00:24.033Z,98925.23
2018-10-02T14:02:52.461Z,98918.70
2018-10-02T14:05:20.736Z,98919.27
2018-10-02T14:07:49.328Z,98925.53
2018-10-02T14:10:19.397Z,98926.48
2018-10-02T14:12:47.723Z,98933.79
2018-10-02T14:15:16.316Z,98934.19
2018-10-02T14:17:44.703Z,98938.38
2018-10-02T14:20:13.178Z,98929.11
2018-10-02T14:22:41.497Z,98919.14
2018-10-02T14:25:09.998Z,98922.04
2018-10-02T14:27:38.329Z,98923.69
2018-10-02T14:30:06.912Z,98932.63
2018-10-02T14:32:35.695Z,98929.07
2018-10-02T14:35:04.140Z,98923.67
2018-10-02T14:37:32.746Z,98922.55
2018-10-02T14:40:01.131Z,98926.20
2018-10-02T14:42:29.425Z,98916.58
2018-10-02T14:44:57.837Z,98917.35
2018-10-02T14:47:26.443Z,98916.43
2018-10-02T14:49:54.855Z,98919.01
2018-10-02T14:52:23.345Z,98923.52
2018-10-02T14:54:51.807Z,98918.92
2018-10-02T14:57:20.263Z,98920.09
2018-10-02T14:59:48.613Z,98914.23
2018-10-02T15:02:16.945Z,98910.35
2018-10-02T15:04:45.475Z,98912.28
2018-10-02T15:07:13.905Z,98911.99
2018-10-02T15:09:42.318Z,98907.43
2018-10-02T15:12:10.791Z,98904.84
2018-10-02T15:14:39.105Z,98901.59
2018-10-02T15:17:07.598Z,98912.23
2018-10-02T15:19:35.998Z,98903.37
2018-10-02T15:22:04.436Z,98905.93
2018-10-02T15:24:32.745Z,98912.10
2018-10-02T15:27:01.103Z,98902.08
2018-10-02T15:29:29.718Z,98901.12
2018-10-02T15:31:58.195Z,98900.20
2018-10-02T15:34:26.638Z,98888.30
2018-10-02T15:36:55.062Z,98892.09
2018-10-02T15:39:23.458Z,98894.37
2018-10-02T15:41:51.737Z,98899.10
2018-10-02T15:44:20.031Z,98901.67
2018-10-02T15:46:48.525Z,98896.73
2018-10-02T15:49:19.726Z,98903.38
2018-10-02T15:51:49.145Z,98900.33
2018-10-02T15:54:18.798Z,98904.32
2018-10-02T15:56:47.278Z,98902.83
2018-10-02T15:59:15.861Z,98912.30
2018-10-02T16:01:44.997Z,98907.62
2018-10-02T16:04:13.496Z,98910.04
2018-10-02T16:06:42.540Z,98913.20
2018-10-02T16:09:11.024Z,98904.27
2018-10-02T16:11:40.830Z,98897.28
2018-10-02T16:14:09.232Z,98903.41
2018-10-02T16:16:38.141Z,98904.75
2018-10-02T16:19:07.208Z,98908.34
2018-10-02T16:21:37.851Z,98907.70
2018-10-02T16:24:06.233Z,98900.74
2018-10-02T16:26:34.584Z,98906.34
2018-10-02T16:29:02.891Z,98904.48
2018-10-02T16:31:31.154Z,98906.57
2018-10-02T16:33:59.414Z,98915.47
2018-10-02T16:36:27.928Z,98908.91
2018-10-02T16:38:56.552Z,98914.53
2018-10-02T16:41:24.872Z,98911.66
2018-10-02T16:43:53.348Z,98921.14
2018-10-02T16:46:21.647Z,98926.87
2018-10-02T16:48:50.536Z,98928.70
2018-10-02T16:51:18.849Z,98937.93
2018-10-02T16:53:47.672Z,98932.47
2018-10-02T16:56:16.816Z,98934.16
2018-10-02T16:58:45.283Z,98938.59
2018-10-02T17:01:13.536Z,98936.80
2018-10-02T17:03:41.803Z,98937.12
2018-10-02T17:06:10.419Z,98935.88
2018-10-02T17:08:38.977Z,98938.98
2018-10-02T17:11:07.459Z,98946.36
2018-10-02T17:13:35.819Z,98947.63
2018-10-02T17:16:04.248Z,98947.45
2018-10-02T17:18:32.772Z,98944.00
2018-10-02T17:21:01.410Z,98951.09
2018-10-02T17:23:29.821Z,98952.28
2018-10-02T17:25:58.217Z,98954.70
2018-10-02T17:28:26.716Z,98957.23
2018-10-02T17:30:55.101Z,98956.33
2018-10-02T17:33:23.712Z,98953.38
2018-10-02T17:35:52.107Z,98954.13
2018-10-02T17:38:21.099Z,98954.69
2018-10-02T17:40:49.525Z,98959.69
2018-10-02T17:43:18.099Z,98965.59
2018-10-02T17:45:46.491Z,98967.45
2018-10-02T17:48:14.812Z,98971.81
2018-10-02T17:50:43.461Z,98973.90
2018-10-02T17:53:11.899Z,98963.87
2018-10-02T17:55:40.382Z,98964.20
2018-10-02T17:58:09.114Z,98972.83
2018-10-02T18:00:37.455Z,98974.09
2018-10-02T18:03:05.900Z,98972.67
2018-10-02T18:05:34.415Z,98960.81
2018-10-02T18:08:02.870Z,98962.80
2018-10-02T18:11:34.669Z,98962.70
2018-10-02T18:14:03.240Z,98961.11
2018-10-02T18:16:32.201Z,98967.53
2018-10-02T18:19:00.677Z,98976.27
2018-10-02T18:21:29.739Z,98974.73
2018-10-02T18:23:58.798Z,98979.30
2018-10-02T18:26:27.362Z,98988.88
2018-10-02T18:28:56.052Z,98998.13
2018-10-02T18:31:24.505Z,98995.34
2018-10-02T18:33:52.914Z,98995.39
2018-10-02T18:36:21.496Z,98987.48
2018-10-02T18:38:49.934Z,99001.81
2018-10-02T18:41:18.788Z,99006.07
2018-10-02T18:43:47.388Z,99006.84
2018-10-02T18:46:15.797Z,99011.27
2018-10-02T18:48:44.584Z,99010.92
2018-10-02T18:51:12.932Z,99012.38
2018-10-02T18:53:41.295Z,99021.39
2018-10-02T18:56:10.110Z,99028.48
2018-10-02T18:58:38.416Z,99021.47
2018-10-02T19:01:07.027Z,99026.41
2018-10-02T19:03:35.447Z,99029.88
2018-10-02T19:06:04.449Z,99038.23
2018-10-02T19:08:38.219Z,99042.73
2018-10-02T19:11:11.961Z,99038.70
2018-10-02T19:13:40.930Z,99047.08
2018-10-02T19:16:30.144Z,99045.53
2018-10-02T19:18:58.762Z,99044.39
2018-10-02T19:21:27.752Z,99047.19
2018-10-02T19:23:56.440Z,99054.72
2018-10-02T19:26:26.854Z,99057.35
2018-10-02T19:28:57.670Z,99061.11
2018-10-02T19:31:31.481Z,99068.59
2018-10-02T19:34:00.425Z,99063.98
2018-10-02T19:36:28.954Z,99066.09
2018-10-02T19:39:08.040Z,99062.11
2018-10-02T19:41:37.176Z,99055.32
2018-10-02T19:44:05.759Z,99063.11
2018-10-02T19:46:40.469Z,99066.70
2018-10-02T19:49:08.944Z,99057.12
2018-10-02T19:51:42.779Z,99061.33
2018-10-02T19:54:11.288Z,99061.16
2018-10-02T19:56:39.922Z,99059.48
2018-10-02T19:59:10.457Z,99054.39
2018-10-02T20:01:39.475Z,99062.05
2018-10-02T20:04:07.901Z,99065.41
2018-10-02T20:06:36.343Z,99061.25
2018-10-02T20:09:06.647Z,99064.08
2018-10-02T20:11:35.249Z,99064.70
2018-10-02T20:14:03.812Z,99064.20
2018-10-02T20:16:32.419Z,99064.22
2018-10-02T20:19:00.922Z,99068.89
2018-10-02T20:21:29.451Z,99059.22
2018-10-02T20:23:57.757Z,99075.39
2018-10-02T20:26:26.307Z,99076.41
2018-10-02T20:28:54.931Z,99072.44
2018-10-02T20:31:23.879Z,99072.84
2018-10-02T20:33:52.429Z,99073.30
2018-10-02T20:36:20.810Z,99079.23
2018-10-02T20:38:49.300Z,99072.23
2018-10-02T20:41:17.633Z,99076.88
2018-10-02T20:43:46.142Z,99076.34
2018-10-02T20:46:14.629Z,99077.52
2018-10-02T20:48:43.024Z,99076.34
2018-10-02T20:51:11.463Z,99071.39
2018-10-02T20:53:40.030Z,99061.02
2018-10-02T20:56:08.386Z,99063.84
2018-10-02T20:58:37.140Z,99058.99
2018-10-02T21:01:05.592Z,99056.59
2018-10-02T21:03:33.918Z,99055.34
2018-10-02T21:06:02.473Z,99049.25
2018-10-02T21:08:31.036Z,99045.77
2018-10-02T21:10:59.450Z,99050.69
2018-10-02T21:13:27.876Z,99048.52
2018-10-02T21:15:56.350Z,99052.30
2018-10-02T21:18:25.886Z,99038.47
2018-10-02T21:20:54.628Z,99042.84
2018-10-02T21:23:22.954Z,99035.64
2018-10-02T21:25:51.934Z,99037.77
2018-10-02T21:28:20.212Z,99031.69
2018-10-02T21:30:48.609Z,99036.19
2018-10-02T21:33:17.050Z,99038.63
2018-10-02T21:35:45.406Z,99046.30
2018-10-02T21:38:14.395Z,99042.27
2018-10-02T21:40:42.958Z,99047.87
2018-10-02T21:43:11.250Z,99049.31
2018-10-02T21:45:39.630Z,99047.93
2018-10-02T21:48:08.143Z,99051.50
2018-10-02T21:50:36.780Z,99051.57
2018-10-02T21:53:05.127Z,99040.55
2018-10-02T21:55:33.443Z,99043.81
2018-10-02T21:58:01.695Z,99053.77
2018-10-02T22:00:31.526Z,99050.86
2018-10-02T22:02:59.960Z,99048.22
2018-10-02T22:05:28.341Z,99052.52
2018-10-02T22:07:56.697Z,99054.78
2018-10-02T22:10:25.020Z,99059.73
2018-10-02T22:12:53.493Z,99063.64
2018-10-02T22:15:21.840Z,99054.83
2018-10-02T22:17:50.087Z,99052.05
2018-10-02T22:20:18.362Z,99048.16
2018-10-02T22:22:46.700Z,99047.83
2018-10-02T22:25:15.215Z,99042.13
2018-10-02T22:27:43.679Z,99036.94
2018-10-02T22:30:13.974Z,99038.98
2018-10-02T22:32:42.661Z,99036.94
2018-10-02T22:35:11.001Z,99041.55
2018-10-02T22:37:39.412Z,99035.00
2018-10-02T22:40:08.354Z,99035.61
2018-10-02T22:42:36.643Z,99031.75
2018-10-02T22:45:05.101Z,99034.99
2018-10-02T22:47:33.485Z,99035.08
2018-10-02T22:50:02.707Z,99042.31
2018-10-02T22:52:31.182Z,99043.30
2018-10-02T22:55:00.602Z,99041.11
2018-10-02T22:57:29.050Z,99039.81
2018-10-02T22:59:57.459Z,99026.89
2018-10-02T23:02:25.783Z,99029.05
2018-10-02T23:04:54.288Z,99029.78
2018-10-02T23:07:24.059Z,99037.98
2018-10-02T23:09:52.766Z,99031.95
2018-10-02T23:12:21.297Z,99035.98
2018-10-02T23:14:49.746Z,99038.52
2018-10-02T23:17:18.190Z,99036.19
2018-10-02T23:19:46.508Z,99039.22
2018-10-02T23:22:15.161Z,99044.45
2018-10-02T23:24:43.971Z,99031.59
2018-10-02T23:27:12.273Z,99030.66
2018-10-02T23:29:40.620Z,99022.38
2018-10-02T23:32:08.999Z,99029.52
2018-10-02T23:34:37.834Z,99015.13
2018-10-02T23:37:07.745Z,99019.95
2018-10-02T23:39:36.003Z,99019.67
2018-10-02T23:42:05.325Z,99008.77
2018-10-02T23:44:37.928Z,99006.59
2018-10-02T23:47:06.754Z,99014.53
2018-10-02T23:49:35.252Z,99013.67
2018-10-02T23:52:03.607Z,99007.72
2018-10-02T23:54:32.518Z,99011.28
2018-10-02T23:57:00.975Z,99008.13
2018-10-02T23:59:31.336Z,99004.72
